sensor_id;sensor_type;location;lat;lon;timestamp;P1;durP1;ratioP1;P2;durP2;ratioP2
12852;SDS011;6495;51.808;7.478;2023-09-12T00:01:06;5.72;;;4.10;;
12852;SDS011;6495;51.808;7.478;2023-09-12T00:03:35;5.20;;;3.83;;
12852;SDS011;6495;51.808;7.478;2023-09-12T00:06:03;6.75;;;4.50;;
12852;SDS011;6495;51.808;7.478;2023-09-12T00:08:33;8.25;;;4.20;;
12852;SDS011;6495;51.808;7.478;2023-09-12T00:11:01;7.18;;;4.32;;
12852;SDS011;6495;51.808;7.478;2023-09-12T00:13:31;6.88;;;4.65;;
12852;SDS011;6495;51.808;7.478;2023-09-12T00:16:00;5.95;;;4.57;;
12852;SDS011;6495;51.808;7.478;2023-09-12T00:18:29;7.70;;;4.15;;
12852;SDS011;6495;51.808;7.478;2023-09-12T00:20:57;7.47;;;4.13;;
12852;SDS011;6495;51.808;7.478;2023-09-12T00:23:27;6.63;;;4.40;;
12852;SDS011;6495;51.808;7.478;2023-09-12T00:25:57;5.70;;;4.55;;
12852;SDS011;6495;51.808;7.478;2023-09-12T00:28:25;6.95;;;4.10;;
12852;SDS011;6495;51.808;7.478;2023-09-12T00:30:54;6.95;;;4.05;;
12852;SDS011;6495;51.808;7.478;2023-09-12T00:33:22;6.63;;;4.30;;
12852;SDS011;6495;51.808;7.478;2023-09-12T00:35:51;5.55;;;4.05;;
12852;SDS011;6495;51.808;7.478;2023-09-12T00:38:19;8.10;;;4.60;;
12852;SDS011;6495;51.808;7.478;2023-09-12T00:40:47;8.48;;;4.50;;
12852;SDS011;6495;51.808;7.478;2023-09-12T00:43:17;6.13;;;4.00;;
12852;SDS011;6495;51.808;7.478;2023-09-12T00:45:45;7.70;;;4.13;;
12852;SDS011;6495;51.808;7.478;2023-09-12T00:48:13;5.25;;;4.05;;
12852;SDS011;6495;51.808;7.478;2023-09-12T00:50:44;6.20;;;4.28;;
12852;SDS011;6495;51.808;7.478;2023-09-12T00:53:15;6.25;;;4.50;;
12852;SDS011;6495;51.808;7.478;2023-09-12T00:55:46;5.50;;;4.18;;
12852;SDS011;6495;51.808;7.478;2023-09-12T00:58:24;4.25;;;3.50;;
12852;SDS011;6495;51.808;7.478;2023-09-12T01:00:54;5.38;;;4.03;;
12852;SDS011;6495;51.808;7.478;2023-09-12T01:03:24;5.50;;;4.03;;
12852;SDS011;6495;51.808;7.478;2023-09-12T01:05:54;4.95;;;4.28;;
12852;SDS011;6495;51.808;7.478;2023-09-12T01:08:24;8.18;;;4.00;;
12852;SDS011;6495;51.808;7.478;2023-09-12T01:10:52;5.70;;;4.15;;
12852;SDS011;6495;51.808;7.478;2023-09-12T01:13:25;6.10;;;4.45;;
12852;SDS011;6495;51.808;7.478;2023-09-12T01:15:54;6.50;;;4.13;;
12852;SDS011;6495;51.808;7.478;2023-09-12T01:18:23;5.30;;;3.83;;
12852;SDS011;6495;51.808;7.478;2023-09-12T01:21:00;8.57;;;4.60;;
12852;SDS011;6495;51.808;7.478;2023-09-12T01:23:57;8.73;;;6.30;;
12852;SDS011;6495;51.808;7.478;2023-09-12T01:26:56;10.95;;;6.32;;
12852;SDS011;6495;51.808;7.478;2023-09-12T01:29:42;13.20;;;7.95;;
12852;SDS011;6495;51.808;7.478;2023-09-12T01:32:13;13.77;;;7.55;;
12852;SDS011;6495;51.808;7.478;2023-09-12T01:34:43;11.93;;;8.00;;
12852;SDS011;6495;51.808;7.478;2023-09-12T01:37:11;14.00;;;7.38;;
12852;SDS011;6495;51.808;7.478;2023-09-12T01:39:40;10.35;;;7.28;;
12852;SDS011;6495;51.808;7.478;2023-09-12T01:42:10;16.95;;;8.48;;
12852;SDS011;6495;51.808;7.478;2023-09-12T01:44:44;13.85;;;8.75;;
12852;SDS011;6495;51.808;7.478;2023-09-12T01:47:14;15.13;;;8.95;;
12852;SDS011;6495;51.808;7.478;2023-09-12T01:49:45;15.70;;;9.98;;
12852;SDS011;6495;51.808;7.478;2023-09-12T01:52:17;14.85;;;8.90;;
12852;SDS011;6495;51.808;7.478;2023-09-12T01:54:47;13.80;;;8.38;;
12852;SDS011;6495;51.808;7.478;2023-09-12T01:57:18;19.10;;;9.63;;
12852;SDS011;6495;51.808;7.478;2023-09-12T01:59:48;14.52;;;10.02;;
12852;SDS011;6495;51.808;7.478;2023-09-12T02:02:17;12.77;;;8.50;;
12852;SDS011;6495;51.808;7.478;2023-09-12T02:04:47;15.88;;;9.18;;
12852;SDS011;6495;51.808;7.478;2023-09-12T02:07:31;19.30;;;9.73;;
12852;SDS011;6495;51.808;7.478;2023-09-12T02:10:03;14.40;;;10.07;;
12852;SDS011;6495;51.808;7.478;2023-09-12T02:12:34;15.52;;;8.65;;
12852;SDS011;6495;51.808;7.478;2023-09-12T02:15:03;15.90;;;9.90;;
12852;SDS011;6495;51.808;7.478;2023-09-12T02:17:32;16.02;;;9.90;;
12852;SDS011;6495;51.808;7.478;2023-09-12T02:20:00;17.77;;;9.07;;
12852;SDS011;6495;51.808;7.478;2023-09-12T02:22:32;14.90;;;10.00;;
12852;SDS011;6495;51.808;7.478;2023-09-12T02:25:00;14.52;;;9.77;;
12852;SDS011;6495;51.808;7.478;2023-09-12T02:27:30;15.25;;;9.93;;
12852;SDS011;6495;51.808;7.478;2023-09-12T02:30:00;15.13;;;9.88;;
12852;SDS011;6495;51.808;7.478;2023-09-12T02:32:29;13.20;;;8.95;;
12852;SDS011;6495;51.808;7.478;2023-09-12T02:34:57;15.20;;;9.63;;
12852;SDS011;6495;51.808;7.478;2023-09-12T02:37:25;13.02;;;9.05;;
12852;SDS011;6495;51.808;7.478;2023-09-12T02:39:53;18.58;;;11.20;;
12852;SDS011;6495;51.808;7.478;2023-09-12T02:42:21;14.48;;;9.55;;
12852;SDS011;6495;51.808;7.478;2023-09-12T02:44:50;15.23;;;9.43;;
12852;SDS011;6495;51.808;7.478;2023-09-12T02:47:21;16.90;;;9.18;;
12852;SDS011;6495;51.808;7.478;2023-09-12T02:49:49;14.05;;;10.00;;
12852;SDS011;6495;51.808;7.478;2023-09-12T02:52:18;19.25;;;10.13;;
12852;SDS011;6495;51.808;7.478;2023-09-12T02:54:47;18.00;;;11.07;;
12852;SDS011;6495;51.808;7.478;2023-09-12T02:57:15;16.15;;;10.27;;
12852;SDS011;6495;51.808;7.478;2023-09-12T02:59:44;16.10;;;9.27;;
12852;SDS011;6495;51.808;7.478;2023-09-12T03:02:12;15.57;;;9.98;;
12852;SDS011;6495;51.808;7.478;2023-09-12T03:04:42;19.48;;;10.35;;
12852;SDS011;6495;51.808;7.478;2023-09-12T03:07:10;14.27;;;9.20;;
12852;SDS011;6495;51.808;7.478;2023-09-12T03:09:38;16.88;;;9.35;;
12852;SDS011;6495;51.808;7.478;2023-09-12T03:12:07;20.50;;;9.25;;
12852;SDS011;6495;51.808;7.478;2023-09-12T03:14:36;14.48;;;9.35;;
12852;SDS011;6495;51.808;7.478;2023-09-12T03:17:04;14.95;;;9.50;;
12852;SDS011;6495;51.808;7.478;2023-09-12T03:19:33;21.88;;;10.43;;
12852;SDS011;6495;51.808;7.478;2023-09-12T03:22:03;22.65;;;11.65;;
12852;SDS011;6495;51.808;7.478;2023-09-12T03:24:31;13.85;;;7.97;;
12852;SDS011;6495;51.808;7.478;2023-09-12T03:27:00;10.07;;;6.65;;
12852;SDS011;6495;51.808;7.478;2023-09-12T03:29:29;14.10;;;6.38;;
12852;SDS011;6495;51.808;7.478;2023-09-12T03:36:04;9.73;;;6.22;;
12852;SDS011;6495;51.808;7.478;2023-09-12T03:38:35;15.50;;;7.18;;
12852;SDS011;6495;51.808;7.478;2023-09-12T03:41:03;12.73;;;6.55;;
12852;SDS011;6495;51.808;7.478;2023-09-12T03:43:32;12.98;;;6.55;;
12852;SDS011;6495;51.808;7.478;2023-09-12T03:46:02;9.80;;;6.35;;
12852;SDS011;6495;51.808;7.478;2023-09-12T03:48:30;17.33;;;7.80;;
12852;SDS011;6495;51.808;7.478;2023-09-12T03:50:59;13.10;;;7.68;;
12852;SDS011;6495;51.808;7.478;2023-09-12T03:53:28;13.25;;;8.40;;
12852;SDS011;6495;51.808;7.478;2023-09-12T03:55:58;18.77;;;8.85;;
12852;SDS011;6495;51.808;7.478;2023-09-12T03:58:27;13.68;;;7.72;;
12852;SDS011;6495;51.808;7.478;2023-09-12T04:00:55;11.48;;;6.90;;
12852;SDS011;6495;51.808;7.478;2023-09-12T04:03:24;12.13;;;6.70;;
12852;SDS011;6495;51.808;7.478;2023-09-12T04:05:52;12.02;;;7.20;;
12852;SDS011;6495;51.808;7.478;2023-09-12T04:08:21;12.55;;;7.32;;
12852;SDS011;6495;51.808;7.478;2023-09-12T04:10:49;13.60;;;7.13;;
12852;SDS011;6495;51.808;7.478;2023-09-12T04:13:18;11.38;;;6.88;;
12852;SDS011;6495;51.808;7.478;2023-09-12T04:15:47;9.60;;;6.28;;
12852;SDS011;6495;51.808;7.478;2023-09-12T04:18:16;11.38;;;6.88;;
12852;SDS011;6495;51.808;7.478;2023-09-12T04:20:48;10.70;;;6.68;;
12852;SDS011;6495;51.808;7.478;2023-09-12T04:23:16;11.45;;;7.45;;
12852;SDS011;6495;51.808;7.478;2023-09-12T04:25:45;12.90;;;7.15;;
12852;SDS011;6495;51.808;7.478;2023-09-12T04:28:14;10.77;;;6.95;;
12852;SDS011;6495;51.808;7.478;2023-09-12T04:30:43;12.75;;;7.32;;
12852;SDS011;6495;51.808;7.478;2023-09-12T04:33:13;11.68;;;7.32;;
12852;SDS011;6495;51.808;7.478;2023-09-12T04:35:41;11.32;;;7.90;;
12852;SDS011;6495;51.808;7.478;2023-09-12T04:38:09;13.50;;;8.43;;
12852;SDS011;6495;51.808;7.478;2023-09-12T04:40:38;12.02;;;8.07;;
12852;SDS011;6495;51.808;7.478;2023-09-12T04:43:06;10.48;;;7.50;;
12852;SDS011;6495;51.808;7.478;2023-09-12T04:45:34;11.65;;;7.50;;
12852;SDS011;6495;51.808;7.478;2023-09-12T04:48:05;14.80;;;8.75;;
12852;SDS011;6495;51.808;7.478;2023-09-12T04:50:33;11.20;;;8.40;;
12852;SDS011;6495;51.808;7.478;2023-09-12T04:53:08;11.30;;;8.27;;
12852;SDS011;6495;51.808;7.478;2023-09-12T04:55:36;15.98;;;8.88;;
12852;SDS011;6495;51.808;7.478;2023-09-12T04:58:05;13.07;;;8.00;;
12852;SDS011;6495;51.808;7.478;2023-09-12T05:00:33;13.77;;;8.57;;
12852;SDS011;6495;51.808;7.478;2023-09-12T05:03:02;12.43;;;8.48;;
12852;SDS011;6495;51.808;7.478;2023-09-12T05:05:33;13.65;;;8.35;;
12852;SDS011;6495;51.808;7.478;2023-09-12T05:08:03;13.45;;;9.57;;
12852;SDS011;6495;51.808;7.478;2023-09-12T05:10:32;16.70;;;8.70;;
12852;SDS011;6495;51.808;7.478;2023-09-12T05:13:00;13.20;;;8.55;;
12852;SDS011;6495;51.808;7.478;2023-09-12T05:15:29;12.18;;;8.55;;
12852;SDS011;6495;51.808;7.478;2023-09-12T05:17:57;15.32;;;9.13;;
12852;SDS011;6495;51.808;7.478;2023-09-12T05:20:28;13.75;;;8.57;;
12852;SDS011;6495;51.808;7.478;2023-09-12T05:22:56;12.77;;;7.88;;
12852;SDS011;6495;51.808;7.478;2023-09-12T05:25:24;12.35;;;7.82;;
12852;SDS011;6495;51.808;7.478;2023-09-12T05:27:54;12.55;;;8.23;;
12852;SDS011;6495;51.808;7.478;2023-09-12T05:30:22;14.85;;;8.65;;
12852;SDS011;6495;51.808;7.478;2023-09-12T05:32:52;12.55;;;8.55;;
12852;SDS011;6495;51.808;7.478;2023-09-12T05:35:20;12.23;;;7.97;;
12852;SDS011;6495;51.808;7.478;2023-09-12T05:37:51;13.60;;;8.20;;
12852;SDS011;6495;51.808;7.478;2023-09-12T05:40:19;12.43;;;8.88;;
12852;SDS011;6495;51.808;7.478;2023-09-12T05:42:47;10.80;;;7.53;;
12852;SDS011;6495;51.808;7.478;2023-09-12T05:45:16;11.80;;;7.28;;
12852;SDS011;6495;51.808;7.478;2023-09-12T05:47:44;11.38;;;7.82;;
12852;SDS011;6495;51.808;7.478;2023-09-12T05:50:12;14.82;;;8.93;;
12852;SDS011;6495;51.808;7.478;2023-09-12T05:52:40;12.80;;;8.38;;
12852;SDS011;6495;51.808;7.478;2023-09-12T05:55:12;11.27;;;8.00;;
12852;SDS011;6495;51.808;7.478;2023-09-12T05:57:40;11.93;;;8.40;;
12852;SDS011;6495;51.808;7.478;2023-09-12T06:00:09;11.48;;;7.80;;
12852;SDS011;6495;51.808;7.478;2023-09-12T06:02:39;15.38;;;8.32;;
12852;SDS011;6495;51.808;7.478;2023-09-12T06:05:08;12.18;;;7.88;;
12852;SDS011;6495;51.808;7.478;2023-09-12T06:07:36;16.63;;;8.52;;
12852;SDS011;6495;51.808;7.478;2023-09-12T06:10:08;15.60;;;7.93;;
12852;SDS011;6495;51.808;7.478;2023-09-12T06:12:38;15.00;;;8.68;;
12852;SDS011;6495;51.808;7.478;2023-09-12T06:15:06;11.63;;;8.18;;
12852;SDS011;6495;51.808;7.478;2023-09-12T06:17:35;15.45;;;8.80;;
12852;SDS011;6495;51.808;7.478;2023-09-12T06:20:03;15.85;;;8.57;;
12852;SDS011;6495;51.808;7.478;2023-09-12T06:22:33;16.73;;;10.43;;
12852;SDS011;6495;51.808;7.478;2023-09-12T06:25:02;14.07;;;9.82;;
12852;SDS011;6495;51.808;7.478;2023-09-12T06:27:31;16.10;;;9.68;;
12852;SDS011;6495;51.808;7.478;2023-09-12T06:30:00;13.70;;;9.10;;
12852;SDS011;6495;51.808;7.478;2023-09-12T06:32:28;15.52;;;9.73;;
12852;SDS011;6495;51.808;7.478;2023-09-12T06:34:57;17.60;;;10.55;;
12852;SDS011;6495;51.808;7.478;2023-09-12T06:37:25;16.25;;;10.15;;
12852;SDS011;6495;51.808;7.478;2023-09-12T06:39:53;13.73;;;9.18;;
12852;SDS011;6495;51.808;7.478;2023-09-12T06:42:21;17.75;;;9.40;;
12852;SDS011;6495;51.808;7.478;2023-09-12T06:44:50;16.13;;;9.77;;
12852;SDS011;6495;51.808;7.478;2023-09-12T06:47:19;14.57;;;8.07;;
12852;SDS011;6495;51.808;7.478;2023-09-12T06:49:47;14.07;;;9.13;;
12852;SDS011;6495;51.808;7.478;2023-09-12T06:52:20;14.70;;;9.27;;
12852;SDS011;6495;51.808;7.478;2023-09-12T06:54:49;13.35;;;9.40;;
12852;SDS011;6495;51.808;7.478;2023-09-12T06:57:17;15.85;;;9.88;;
12852;SDS011;6495;51.808;7.478;2023-09-12T06:59:45;16.05;;;9.73;;
12852;SDS011;6495;51.808;7.478;2023-09-12T07:02:15;18.77;;;10.45;;
12852;SDS011;6495;51.808;7.478;2023-09-12T07:04:46;12.35;;;8.75;;
12852;SDS011;6495;51.808;7.478;2023-09-12T07:07:14;15.43;;;9.63;;
12852;SDS011;6495;51.808;7.478;2023-09-12T07:09:42;14.57;;;9.57;;
12852;SDS011;6495;51.808;7.478;2023-09-12T07:12:10;15.65;;;9.68;;
12852;SDS011;6495;51.808;7.478;2023-09-12T07:14:39;17.25;;;9.85;;
12852;SDS011;6495;51.808;7.478;2023-09-12T07:17:07;14.38;;;9.90;;
12852;SDS011;6495;51.808;7.478;2023-09-12T07:19:35;20.48;;;13.13;;
12852;SDS011;6495;51.808;7.478;2023-09-12T07:22:05;17.63;;;11.32;;
12852;SDS011;6495;51.808;7.478;2023-09-12T07:24:33;19.35;;;12.00;;
12852;SDS011;6495;51.808;7.478;2023-09-12T07:27:01;16.70;;;11.88;;
12852;SDS011;6495;51.808;7.478;2023-09-12T07:29:29;21.23;;;12.45;;
12852;SDS011;6495;51.808;7.478;2023-09-12T07:31:58;20.13;;;12.80;;
12852;SDS011;6495;51.808;7.478;2023-09-12T07:34:27;20.85;;;13.52;;
12852;SDS011;6495;51.808;7.478;2023-09-12T07:36:55;20.60;;;12.52;;
12852;SDS011;6495;51.808;7.478;2023-09-12T07:39:25;17.55;;;12.40;;
12852;SDS011;6495;51.808;7.478;2023-09-12T07:41:53;19.02;;;12.43;;
12852;SDS011;6495;51.808;7.478;2023-09-12T07:44:21;21.17;;;13.20;;
12852;SDS011;6495;51.808;7.478;2023-09-12T07:46:49;21.55;;;13.30;;
12852;SDS011;6495;51.808;7.478;2023-09-12T07:49:17;18.27;;;11.80;;
12852;SDS011;6495;51.808;7.478;2023-09-12T07:51:45;17.65;;;12.88;;
12852;SDS011;6495;51.808;7.478;2023-09-12T07:54:14;21.95;;;13.38;;
12852;SDS011;6495;51.808;7.478;2023-09-12T07:56:45;17.77;;;12.00;;
12852;SDS011;6495;51.808;7.478;2023-09-12T07:59:13;17.50;;;11.73;;
12852;SDS011;6495;51.808;7.478;2023-09-12T08:01:42;16.83;;;11.25;;
12852;SDS011;6495;51.808;7.478;2023-09-12T08:04:11;16.67;;;10.63;;
12852;SDS011;6495;51.808;7.478;2023-09-12T08:06:41;15.50;;;10.32;;
12852;SDS011;6495;51.808;7.478;2023-09-12T08:09:23;15.07;;;9.95;;
12852;SDS011;6495;51.808;7.478;2023-09-12T08:11:53;17.17;;;10.60;;
12852;SDS011;6495;51.808;7.478;2023-09-12T08:14:21;18.02;;;10.15;;
12852;SDS011;6495;51.808;7.478;2023-09-12T08:16:49;14.23;;;10.15;;
12852;SDS011;6495;51.808;7.478;2023-09-12T08:19:17;13.90;;;8.93;;
12852;SDS011;6495;51.808;7.478;2023-09-12T08:21:45;12.70;;;8.73;;
12852;SDS011;6495;51.808;7.478;2023-09-12T08:24:13;13.45;;;8.65;;
12852;SDS011;6495;51.808;7.478;2023-09-12T08:26:41;15.35;;;9.95;;
12852;SDS011;6495;51.808;7.478;2023-09-12T08:29:11;16.67;;;9.75;;
12852;SDS011;6495;51.808;7.478;2023-09-12T08:31:39;12.02;;;9.15;;
12852;SDS011;6495;51.808;7.478;2023-09-12T08:34:07;15.98;;;9.35;;
12852;SDS011;6495;51.808;7.478;2023-09-12T08:36:38;19.38;;;8.82;;
12852;SDS011;6495;51.808;7.478;2023-09-12T08:39:06;16.95;;;9.38;;
12852;SDS011;6495;51.808;7.478;2023-09-12T08:41:41;13.80;;;9.20;;
12852;SDS011;6495;51.808;7.478;2023-09-12T08:44:14;12.70;;;9.40;;
12852;SDS011;6495;51.808;7.478;2023-09-12T08:46:42;14.07;;;8.52;;
12852;SDS011;6495;51.808;7.478;2023-09-12T08:49:12;15.75;;;9.82;;
12852;SDS011;6495;51.808;7.478;2023-09-12T08:51:41;17.30;;;9.70;;
12852;SDS011;6495;51.808;7.478;2023-09-12T08:54:10;14.13;;;9.43;;
12852;SDS011;6495;51.808;7.478;2023-09-12T08:56:39;16.70;;;9.00;;
12852;SDS011;6495;51.808;7.478;2023-09-12T08:59:11;13.00;;;8.82;;
12852;SDS011;6495;51.808;7.478;2023-09-12T09:01:42;14.38;;;9.00;;
12852;SDS011;6495;51.808;7.478;2023-09-12T09:04:12;15.45;;;9.38;;
12852;SDS011;6495;51.808;7.478;2023-09-12T09:06:41;19.15;;;9.57;;
12852;SDS011;6495;51.808;7.478;2023-09-12T09:09:09;14.20;;;9.88;;
12852;SDS011;6495;51.808;7.478;2023-09-12T09:11:38;14.63;;;10.15;;
12852;SDS011;6495;51.808;7.478;2023-09-12T09:14:06;13.85;;;9.57;;
12852;SDS011;6495;51.808;7.478;2023-09-12T09:16:35;16.10;;;10.05;;
12852;SDS011;6495;51.808;7.478;2023-09-12T09:19:04;13.27;;;9.65;;
12852;SDS011;6495;51.808;7.478;2023-09-12T09:21:37;13.65;;;9.52;;
12852;SDS011;6495;51.808;7.478;2023-09-12T09:24:08;14.45;;;9.07;;
12852;SDS011;6495;51.808;7.478;2023-09-12T09:26:42;14.98;;;9.40;;
12852;SDS011;6495;51.808;7.478;2023-09-12T09:29:13;15.85;;;9.82;;
12852;SDS011;6495;51.808;7.478;2023-09-12T09:31:45;15.38;;;9.05;;
12852;SDS011;6495;51.808;7.478;2023-09-12T09:34:16;13.90;;;9.15;;
12852;SDS011;6495;51.808;7.478;2023-09-12T09:36:48;12.55;;;9.00;;
12852;SDS011;6495;51.808;7.478;2023-09-12T09:39:19;14.00;;;8.73;;
12852;SDS011;6495;51.808;7.478;2023-09-12T09:41:50;14.18;;;8.65;;
12852;SDS011;6495;51.808;7.478;2023-09-12T09:44:21;13.75;;;9.32;;
12852;SDS011;6495;51.808;7.478;2023-09-12T09:46:54;12.90;;;8.85;;
12852;SDS011;6495;51.808;7.478;2023-09-12T09:49:30;14.85;;;9.90;;
12852;SDS011;6495;51.808;7.478;2023-09-12T09:52:02;13.80;;;8.63;;
12852;SDS011;6495;51.808;7.478;2023-09-12T09:54:32;15.85;;;8.88;;
12852;SDS011;6495;51.808;7.478;2023-09-12T09:57:00;12.07;;;8.43;;
12852;SDS011;6495;51.808;7.478;2023-09-12T09:59:29;10.98;;;8.63;;
12852;SDS011;6495;51.808;7.478;2023-09-12T10:01:59;13.73;;;9.30;;
12852;SDS011;6495;51.808;7.478;2023-09-12T10:04:29;9.80;;;7.20;;
12852;SDS011;6495;51.808;7.478;2023-09-12T10:07:04;9.13;;;6.57;;
12852;SDS011;6495;51.808;7.478;2023-09-12T10:09:35;10.95;;;6.97;;
12852;SDS011;6495;51.808;7.478;2023-09-12T10:12:05;10.18;;;7.53;;
12852;SDS011;6495;51.808;7.478;2023-09-12T10:14:34;12.00;;;7.30;;
12852;SDS011;6495;51.808;7.478;2023-09-12T10:17:08;9.32;;;6.15;;
12852;SDS011;6495;51.808;7.478;2023-09-12T10:19:42;9.45;;;6.60;;
12852;SDS011;6495;51.808;7.478;2023-09-12T10:22:24;7.53;;;6.22;;
12852;SDS011;6495;51.808;7.478;2023-09-12T10:25:01;7.57;;;5.28;;
12852;SDS011;6495;51.808;7.478;2023-09-12T10:27:30;6.55;;;5.43;;
12852;SDS011;6495;51.808;7.478;2023-09-12T10:30:01;5.53;;;4.50;;
12852;SDS011;6495;51.808;7.478;2023-09-12T10:32:32;6.32;;;5.00;;
12852;SDS011;6495;51.808;7.478;2023-09-12T10:35:02;8.10;;;5.50;;
12852;SDS011;6495;51.808;7.478;2023-09-12T10:37:33;7.03;;;5.00;;
12852;SDS011;6495;51.808;7.478;2023-09-12T10:40:05;6.25;;;4.82;;
12852;SDS011;6495;51.808;7.478;2023-09-12T10:42:37;6.53;;;4.80;;
12852;SDS011;6495;51.808;7.478;2023-09-12T10:45:08;7.93;;;4.43;;
12852;SDS011;6495;51.808;7.478;2023-09-12T10:47:38;5.70;;;4.68;;
12852;SDS011;6495;51.808;7.478;2023-09-12T10:50:07;6.75;;;4.97;;
12852;SDS011;6495;51.808;7.478;2023-09-12T10:52:36;7.00;;;5.00;;
12852;SDS011;6495;51.808;7.478;2023-09-12T10:55:07;5.97;;;4.57;;
12852;SDS011;6495;51.808;7.478;2023-09-12T11:00:31;5.00;;;4.00;;
12852;SDS011;6495;51.808;7.478;2023-09-12T11:06:09;4.85;;;4.35;;
12852;SDS011;6495;51.808;7.478;2023-09-12T11:11:48;5.55;;;4.68;;
12852;SDS011;6495;51.808;7.478;2023-09-12T11:14:26;5.38;;;3.67;;
12852;SDS011;6495;51.808;7.478;2023-09-12T11:19:51;6.07;;;3.97;;
12852;SDS011;6495;51.808;7.478;2023-09-12T11:22:21;4.93;;;3.97;;
12852;SDS011;6495;51.808;7.478;2023-09-12T11:24:54;7.68;;;5.78;;
12852;SDS011;6495;51.808;7.478;2023-09-12T11:27:23;5.88;;;4.60;;
12852;SDS011;6495;51.808;7.478;2023-09-12T11:30:03;8.65;;;5.35;;
12852;SDS011;6495;51.808;7.478;2023-09-12T11:32:34;6.85;;;5.35;;
12852;SDS011;6495;51.808;7.478;2023-09-12T11:35:06;6.90;;;5.00;;
12852;SDS011;6495;51.808;7.478;2023-09-12T11:37:37;7.03;;;5.72;;
12852;SDS011;6495;51.808;7.478;2023-09-12T11:40:15;6.85;;;5.25;;
12852;SDS011;6495;51.808;7.478;2023-09-12T11:42:49;6.85;;;5.30;;
12852;SDS011;6495;51.808;7.478;2023-09-12T11:45:18;7.80;;;5.50;;
12852;SDS011;6495;51.808;7.478;2023-09-12T11:47:48;6.80;;;4.47;;
12852;SDS011;6495;51.808;7.478;2023-09-12T11:50:27;5.32;;;4.57;;
12852;SDS011;6495;51.808;7.478;2023-09-12T11:53:00;5.35;;;4.60;;
12852;SDS011;6495;51.808;7.478;2023-09-12T11:55:31;6.20;;;4.60;;
12852;SDS011;6495;51.808;7.478;2023-09-12T11:58:00;5.80;;;5.07;;
12852;SDS011;6495;51.808;7.478;2023-09-12T12:00:29;9.40;;;4.70;;
12852;SDS011;6495;51.808;7.478;2023-09-12T12:02:57;7.25;;;4.50;;
12852;SDS011;6495;51.808;7.478;2023-09-12T12:05:27;5.97;;;4.72;;
12852;SDS011;6495;51.808;7.478;2023-09-12T12:07:56;4.75;;;4.25;;
12852;SDS011;6495;51.808;7.478;2023-09-12T12:10:49;5.75;;;4.38;;
12852;SDS011;6495;51.808;7.478;2023-09-12T12:13:17;6.45;;;4.15;;
12852;SDS011;6495;51.808;7.478;2023-09-12T12:15:47;6.72;;;5.63;;
12852;SDS011;6495;51.808;7.478;2023-09-12T12:18:15;6.65;;;5.03;;
12852;SDS011;6495;51.808;7.478;2023-09-12T12:20:45;5.25;;;4.70;;
12852;SDS011;6495;51.808;7.478;2023-09-12T12:23:13;6.03;;;4.55;;
12852;SDS011;6495;51.808;7.478;2023-09-12T12:25:42;10.40;;;4.75;;
12852;SDS011;6495;51.808;7.478;2023-09-12T12:28:10;8.35;;;6.00;;
12852;SDS011;6495;51.808;7.478;2023-09-12T12:30:38;6.72;;;5.20;;
12852;SDS011;6495;51.808;7.478;2023-09-12T12:33:08;7.32;;;5.70;;
12852;SDS011;6495;51.808;7.478;2023-09-12T12:36:02;7.15;;;6.07;;
12852;SDS011;6495;51.808;7.478;2023-09-12T12:38:35;6.20;;;5.03;;
12852;SDS011;6495;51.808;7.478;2023-09-12T12:41:21;5.55;;;4.45;;
12852;SDS011;6495;51.808;7.478;2023-09-12T12:43:56;5.05;;;4.53;;
12852;SDS011;6495;51.808;7.478;2023-09-12T12:46:29;5.72;;;4.70;;
12852;SDS011;6495;51.808;7.478;2023-09-12T12:48:58;5.03;;;4.40;;
12852;SDS011;6495;51.808;7.478;2023-09-12T12:51:27;6.57;;;5.22;;
12852;SDS011;6495;51.808;7.478;2023-09-12T12:54:03;7.25;;;4.47;;
12852;SDS011;6495;51.808;7.478;2023-09-12T12:56:33;6.03;;;5.22;;
12852;SDS011;6495;51.808;7.478;2023-09-12T12:59:02;5.95;;;4.60;;
12852;SDS011;6495;51.808;7.478;2023-09-12T13:01:35;6.35;;;5.00;;
12852;SDS011;6495;51.808;7.478;2023-09-12T13:04:05;5.57;;;4.90;;
12852;SDS011;6495;51.808;7.478;2023-09-12T13:06:36;8.05;;;5.03;;
12852;SDS011;6495;51.808;7.478;2023-09-12T13:09:05;6.07;;;4.55;;
12852;SDS011;6495;51.808;7.478;2023-09-12T13:11:35;6.03;;;5.35;;
12852;SDS011;6495;51.808;7.478;2023-09-12T13:14:03;6.70;;;5.18;;
12852;SDS011;6495;51.808;7.478;2023-09-12T13:16:36;6.90;;;5.45;;
12852;SDS011;6495;51.808;7.478;2023-09-12T13:19:06;6.55;;;5.20;;
12852;SDS011;6495;51.808;7.478;2023-09-12T13:21:34;6.15;;;4.78;;
12852;SDS011;6495;51.808;7.478;2023-09-12T13:24:04;5.00;;;4.35;;
12852;SDS011;6495;51.808;7.478;2023-09-12T13:26:33;6.13;;;4.78;;
12852;SDS011;6495;51.808;7.478;2023-09-12T13:29:01;4.97;;;4.30;;
12852;SDS011;6495;51.808;7.478;2023-09-12T13:31:29;8.15;;;6.03;;
12852;SDS011;6495;51.808;7.478;2023-09-12T13:33:59;8.23;;;5.93;;
12852;SDS011;6495;51.808;7.478;2023-09-12T13:36:27;8.90;;;6.75;;
12852;SDS011;6495;51.808;7.478;2023-09-12T13:38:56;5.22;;;4.57;;
12852;SDS011;6495;51.808;7.478;2023-09-12T13:41:24;6.50;;;5.40;;
12852;SDS011;6495;51.808;7.478;2023-09-12T13:43:54;5.25;;;4.57;;
12852;SDS011;6495;51.808;7.478;2023-09-12T13:46:22;5.47;;;4.60;;
12852;SDS011;6495;51.808;7.478;2023-09-12T13:48:50;5.50;;;4.97;;
12852;SDS011;6495;51.808;7.478;2023-09-12T13:51:18;6.15;;;4.75;;
12852;SDS011;6495;51.808;7.478;2023-09-12T13:53:46;8.10;;;4.65;;
12852;SDS011;6495;51.808;7.478;2023-09-12T13:56:16;5.28;;;4.13;;
12852;SDS011;6495;51.808;7.478;2023-09-12T13:58:44;7.03;;;4.82;;
12852;SDS011;6495;51.808;7.478;2023-09-12T14:01:13;5.93;;;4.80;;
12852;SDS011;6495;51.808;7.478;2023-09-12T14:03:56;7.22;;;4.97;;
12852;SDS011;6495;51.808;7.478;2023-09-12T14:06:25;5.85;;;4.18;;
12852;SDS011;6495;51.808;7.478;2023-09-12T14:08:54;9.07;;;4.35;;
12852;SDS011;6495;51.808;7.478;2023-09-12T14:11:24;5.55;;;4.63;;
12852;SDS011;6495;51.808;7.478;2023-09-12T14:14:02;4.72;;;4.13;;
12852;SDS011;6495;51.808;7.478;2023-09-12T14:16:33;5.30;;;4.18;;
12852;SDS011;6495;51.808;7.478;2023-09-12T14:19:01;6.65;;;5.05;;
12852;SDS011;6495;51.808;7.478;2023-09-12T14:21:30;6.13;;;4.80;;
12852;SDS011;6495;51.808;7.478;2023-09-12T14:23:58;6.88;;;4.95;;
12852;SDS011;6495;51.808;7.478;2023-09-12T14:26:28;5.25;;;4.68;;
12852;SDS011;6495;51.808;7.478;2023-09-12T14:28:58;7.70;;;4.07;;
12852;SDS011;6495;51.808;7.478;2023-09-12T14:31:28;4.97;;;4.15;;
12852;SDS011;6495;51.808;7.478;2023-09-12T14:33:57;5.57;;;4.50;;
12852;SDS011;6495;51.808;7.478;2023-09-12T14:36:25;5.65;;;4.85;;
12852;SDS011;6495;51.808;7.478;2023-09-12T14:38:53;7.22;;;4.90;;
12852;SDS011;6495;51.808;7.478;2023-09-12T14:41:21;7.50;;;5.05;;
12852;SDS011;6495;51.808;7.478;2023-09-12T14:43:51;8.60;;;5.18;;
12852;SDS011;6495;51.808;7.478;2023-09-12T14:46:19;6.60;;;4.65;;
12852;SDS011;6495;51.808;7.478;2023-09-12T14:48:47;12.32;;;5.95;;
12852;SDS011;6495;51.808;7.478;2023-09-12T14:51:27;5.20;;;4.45;;
12852;SDS011;6495;51.808;7.478;2023-09-12T14:54:00;5.38;;;4.88;;
12852;SDS011;6495;51.808;7.478;2023-09-12T14:56:29;5.40;;;4.70;;
12852;SDS011;6495;51.808;7.478;2023-09-12T14:58:59;5.68;;;4.95;;
12852;SDS011;6495;51.808;7.478;2023-09-12T15:01:28;7.93;;;4.80;;
12852;SDS011;6495;51.808;7.478;2023-09-12T15:03:57;5.55;;;4.80;;
12852;SDS011;6495;51.808;7.478;2023-09-12T15:06:29;5.53;;;4.85;;
12852;SDS011;6495;51.808;7.478;2023-09-12T15:09:22;6.10;;;5.00;;
12852;SDS011;6495;51.808;7.478;2023-09-12T15:11:50;8.60;;;5.93;;
12852;SDS011;6495;51.808;7.478;2023-09-12T15:14:19;6.55;;;5.22;;
12852;SDS011;6495;51.808;7.478;2023-09-12T15:16:49;7.43;;;5.65;;
12852;SDS011;6495;51.808;7.478;2023-09-12T15:19:17;6.05;;;5.00;;
12852;SDS011;6495;51.808;7.478;2023-09-12T15:21:45;6.90;;;4.88;;
12852;SDS011;6495;51.808;7.478;2023-09-12T15:24:13;6.05;;;5.03;;
12852;SDS011;6495;51.808;7.478;2023-09-12T15:26:42;6.60;;;5.38;;